Latest Weather Observations for Nuriootpa

IDS60801

Issued at 3:01 pm CST Tuesday 28 July 2015 (issued every 30 minutes, with the page automatically refreshed every 10 minutes)

About weather observations | Map of weather stations | Latest weather observations for SA | Other Formats
Station Details ID: 023373 Name: NURIOOTPA VITICULTURAL Lat: -34.48 Lon: 139.01 Height: 275.0 m
Data from the previous 72 hours. | See also: Recent months at Nuriootpa
Date/Time
CST
Temp
°C
App
Temp
°C
Dew
Point
Rel
Hum
%
Delta-T
°C
Wind Press
QNH
hPa
Press
MSL
hPa
Rain
since 9 am
mm
Dir
 
Spd
km/h
Gust
km/h
Spd
kts
Gust
kts
28/03:00pm 11.0 8.3 3.8 61 3.2 SSW 7 11 4 6 1034.2 1034.7 0.0
28/02:30pm 11.8 8.9 4.8 62 3.2 W 9 11 5 6 1034.4 1034.9 0.0
28/02:00pm 12.0 9.5 4.8 61 3.3 W 7 9 4 5 1034.7 1035.2 0.0
28/01:30pm 10.4 8.2 5.1 69 2.4 SSW 6 7 3 4 1035.2 1035.7 0.0
28/01:00pm 10.3 7.5 5.0 69 2.4 WSW 9 13 5 7 1035.6 1036.1 0.0
28/12:30pm 11.1 8.6 4.7 64 2.9 WNW 7 17 4 9 1036.3 1036.8 0.0
28/12:00pm 10.3 8.3 4.5 67 2.6 NW 4 9 2 5 1036.8 1037.3 0.0
28/11:30am 9.9 7.8 5.8 75 1.9 NW 6 9 3 5 1037.3 1037.8 0.0
28/11:00am 8.7 6.9 5.6 81 1.4 ESE 4 9 2 5 1037.7 1038.2 0.0
28/10:30am 8.6 7.3 6.0 84 1.2 NNE 2 9 1 5 1037.7 1038.2 0.0
28/10:00am 7.2 5.1 5.6 89 0.7 NNE 6 9 3 5 1038.0 1038.5 0.0
28/09:30am 6.9 4.7 5.1 88 0.8 NNW 6 9 3 5 1037.7 1038.2 0.0
28/09:00am 5.4 3.5 4.9 97 0.2 NNE 4 7 2 4 1037.7 1038.2 0.2
28/08:30am 4.3 1.6 3.8 97 0.2 NE 7 9 4 5 1037.8 1038.3 0.2
28/08:00am 3.7 2.3 3.5 99 0.1 CALM 0 2 0 1 1037.7 1038.2 0.2
28/07:30am 3.4 0.8 3.4 100 0.0 NE 6 9 3 5 1037.9 1038.4 0.2
28/07:00am 3.1 0.5 3.1 100 0.0 NE 6 7 3 4 1037.4 1037.9 0.2
28/06:30am 2.7 1.1 2.4 98 0.1 CALM 0 0 0 0 1037.4 1037.9 0.2
28/06:00am 2.3 0.7 2.3 100 0.0 CALM 0 0 0 0 1036.9 1037.4 0.2
28/05:30am 2.1 0.4 1.8 98 0.1 CALM 0 7 0 4 1036.4 1036.9 0.2
28/05:00am 2.7 0.8 2.7 100 0.0 E 2 7 1 4 1036.2 1036.7 0.2
28/04:30am 3.5 2.1 3.5 100 0.0 CALM 0 0 0 0 1036.0 1036.5 0.2
28/04:00am 4.3 3.0 4.3 100 0.0 CALM 0 0 0 0 1036.0 1036.5 0.2
28/03:30am 4.2 2.9 4.0 99 0.1 CALM 0 0 0 0 1036.1 1036.6 0.2
28/03:00am 4.3 1.7 4.1 99 0.1 NE 7 9 4 5 1036.1 1036.6 0.2
28/02:30am 4.6 2.1 4.6 100 0.0 NNE 7 9 4 5 1036.2 1036.7 0.2
28/02:00am 4.4 3.1 4.2 99 0.1 CALM 0 0 0 0 1036.3 1036.8 0.2
28/01:30am 4.0 2.3 3.8 99 0.1 E 2 7 1 4 1036.2 1036.7 0.2
28/01:00am 4.6 2.2 4.4 99 0.1 ENE 6 9 3 5 1036.1 1036.6 0.2
28/12:30am 4.7 3.5 4.5 99 0.1 CALM 0 0 0 0 1036.0 1036.5 0.0
28/12:00am 4.0 1.5 3.5 97 0.2 NNE 6 7 3 4 1035.8 1036.3 0.0
 
Date/Time
CST
Temp
°C
App
Temp
°C
Dew
Point
Rel
Hum
%
Delta-T
°C
Wind Press
QNH
hPa
Press
MSL
hPa
Rain
since 9 am
mm
Dir
 
Spd
km/h
Gust
km/h
Spd
kts
Gust
kts
27/11:30pm 3.8 1.2 3.3 97 0.2 ENE 6 9 3 5 1035.9 1036.4 0.0
27/11:00pm 3.3 1.8 2.8 97 0.2 CALM 0 0 0 0 1036.1 1036.6 0.0
27/10:30pm 2.5 0.1 2.2 98 0.1 ENE 4 9 2 5 1036.0 1036.5 0.0
27/10:00pm 2.0 -0.9 1.7 98 0.1 ENE 6 7 3 4 1036.1 1036.6 0.0
27/09:30pm 1.6 -0.2 1.1 96 0.2 CALM 0 0 0 0 1036.1 1036.6 0.0
27/09:00pm 2.1 0.4 1.6 96 0.2 CALM 0 0 0 0 1035.9 1036.4 0.0
27/08:30pm 2.7 0.3 1.9 94 0.3 NNE 4 7 2 4 1035.8 1036.3 0.0
27/08:00pm 2.6 -0.4 1.8 94 0.3 ENE 7 9 4 5 1035.8 1036.3 0.0
27/07:30pm 3.3 1.7 2.6 95 0.3 CALM 0 6 0 3 1035.7 1036.2 0.0
27/07:00pm 5.0 2.3 3.6 91 0.6 WSW 7 7 4 4 1035.5 1036.0 0.0
27/06:30pm 6.1 3.4 3.7 84 1.0 WNW 7 9 4 5 1035.2 1035.7 0.0
27/06:00pm 6.8 3.8 4.0 82 1.2 W 9 9 5 5 1034.9 1035.4 0.0
27/05:30pm 8.0 5.0 3.9 75 1.8 WSW 9 13 5 7 1034.8 1035.3 0.0
27/05:00pm 8.6 5.1 3.3 69 2.3 WSW 11 17 6 9 1034.6 1035.1 0.0
27/04:30pm 9.9 5.5 2.7 61 3.1 WSW 15 22 8 12 1034.3 1034.8 0.0
27/04:00pm 10.1 6.4 4.5 68 2.5 SSW 13 19 7 10 1034.2 1034.7 0.0
27/03:30pm 9.9 5.7 4.0 67 2.6 SW 15 20 8 11 1034.0 1034.4 0.0
27/03:00pm 9.5 5.8 4.6 71 2.2 W 13 20 7 11 1034.0 1034.4 0.0
27/02:30pm 10.5 6.1 4.5 66 2.7 WSW 17 20 9 11 1033.7 1034.1 0.0
27/02:00pm 9.5 4.9 3.8 67 2.5 W 17 20 9 11 1033.6 1034.0 0.0
27/01:30pm 9.0 4.9 4.3 72 2.1 SW 15 20 8 11 1033.8 1034.2 0.0
27/01:00pm 9.1 5.9 5.1 76 1.8 WSW 11 17 6 9 1034.1 1034.6 0.0
27/12:30pm 8.4 5.3 5.5 82 1.3 W 11 15 6 8 1034.5 1035.0 0.0
27/12:00pm 8.8 5.3 5.5 80 1.5 W 13 17 7 9 1034.7 1035.2 0.0
27/11:30am 9.1 5.3 5.8 80 1.5 W 15 26 8 14 1035.0 1035.5 0.0
27/11:00am 7.9 4.8 5.7 86 1.0 W 11 17 6 9 1035.3 1035.8 0.0
27/10:30am 7.0 6.1 6.1 94 0.4 CALM 0 0 0 0 1035.4 1035.9 0.0
27/10:00am 6.0 5.0 5.8 99 0.1 CALM 0 0 0 0 1035.0 1035.5 0.0
27/09:30am 4.8 2.5 4.6 99 0.1 ENE 6 7 3 4 1034.8 1035.3 0.0
27/09:00am 3.8 1.3 3.8 100 0.0 NE 6 7 3 4 1034.4 1034.9 0.2
27/08:30am 2.9 1.4 2.9 100 0.0 CALM 0 6 0 3 1034.3 1034.8 0.2
27/08:00am 1.8 -0.3 1.5 98 0.1 NE 2 6 1 3 1033.8 1034.2 0.2
27/07:30am 0.8 -1.1 0.5 98 0.1 CALM 0 0 0 0 1033.4 1033.8 0.2
27/07:00am 0.1 - - - - CALM 0 0 0 0 1032.8 1033.3 0.2
27/06:30am -0.5 - - - - CALM 0 0 0 0 1032.5 1033.0 0.2
27/06:00am -0.5 - - - - CALM 0 0 0 0 1032.1 1032.6 0.2
27/05:30am -0.4 - - - - CALM 0 0 0 0 1031.7 1032.2 0.2
27/05:00am -0.2 - - - - CALM 0 0 0 0 1031.4 1031.9 0.2
27/04:30am 0.3 -1.6 0.3 100 0.0 CALM 0 4 0 2 1031.4 1031.9 0.2
27/04:00am 0.9 -1.3 0.9 100 0.0 ENE 2 9 1 5 1031.0 1031.4 0.2
27/03:30am 1.2 -0.6 0.9 98 0.1 CALM 0 0 0 0 1030.7 1031.1 0.2
27/03:00am 0.8 -1.1 0.8 100 0.0 CALM 0 0 0 0 1030.7 1031.1 0.2
27/02:30am 0.7 -1.2 0.7 100 0.0 CALM 0 0 0 0 1030.6 1031.0 0.2
27/02:00am 1.4 -1.6 1.1 98 0.1 ENE 6 7 3 4 1030.6 1031.0 0.2
27/01:30am 1.0 -2.2 1.0 100 0.0 E 7 9 4 5 1030.5 1030.9 0.2
27/01:00am 0.8 -1.1 0.8 100 0.0 CALM 0 0 0 0 1030.1 1030.5 0.2
27/12:30am 1.5 -0.3 1.5 100 0.0 CALM 0 0 0 0 1030.2 1030.6 0.2
27/12:00am 2.4 0.7 2.1 98 0.1 CALM 0 0 0 0 1029.9 1030.3 0.2
 
Date/Time
CST
Temp
°C
App
Temp
°C
Dew
Point
Rel
Hum
%
Delta-T
°C
Wind Press
QNH
hPa
Press
MSL
hPa
Rain
since 9 am
mm
Dir
 
Spd
km/h
Gust
km/h
Spd
kts
Gust
kts
26/11:30pm 2.2 0.5 1.9 98 0.1 CALM 0 0 0 0 1029.9 1030.3 0.2
26/11:00pm 1.8 0.1 1.8 100 0.0 CALM 0 0 0 0 1029.7 1030.1 0.2
26/10:30pm 2.9 1.3 2.7 99 0.1 CALM 0 0 0 0 1029.4 1029.9 0.2
26/10:00pm 2.9 1.3 2.7 99 0.1 CALM 0 0 0 0 1029.4 1029.9 0.2
26/09:30pm 3.6 2.1 3.1 97 0.2 CALM 0 0 0 0 1029.0 1029.5 0.2
26/09:00pm 4.0 1.4 3.3 95 0.3 WNW 6 7 3 4 1028.5 1029.0 0.2
26/08:30pm 3.3 0.3 2.3 93 0.4 SW 7 11 4 6 1028.4 1028.9 0.2
26/08:00pm 4.1 1.3 2.9 92 0.5 W 7 9 4 5 1028.0 1028.5 0.2
26/07:30pm 4.5 1.7 3.0 90 0.6 SSW 7 13 4 7 1027.8 1028.2 0.2
26/07:00pm 5.4 2.2 3.3 86 0.9 W 9 11 5 6 1027.2 1027.6 0.2
26/06:30pm 6.6 3.1 3.6 81 1.3 WSW 11 17 6 9 1026.8 1027.2 0.2
26/06:00pm 7.0 2.0 3.8 80 1.4 W 19 26 10 14 1026.5 1026.9 0.2
26/05:30pm 7.1 2.9 3.9 80 1.4 WSW 15 20 8 11 1025.9 1026.3 0.2
26/05:00pm 7.8 3.5 3.4 74 1.9 WSW 15 22 8 12 1025.4 1025.9 0.2
26/04:30pm 7.9 1.7 4.3 78 1.6 WSW 26 37 14 20 1025.2 1025.7 0.2
26/04:00pm 8.9 2.6 3.6 69 2.3 W 26 33 14 18 1024.5 1024.9 0.2
26/03:30pm 9.5 2.7 0.8 54 3.6 WSW 26 39 14 21 1024.4 1024.8 0.2
26/03:00pm 9.4 2.1 2.4 61 3.0 WSW 30 41 16 22 1024.1 1024.5 0.2
26/02:30pm 9.5 1.9 0.8 54 3.6 WSW 30 43 16 23 1023.9 1024.3 0.2
26/02:00pm 9.5 2.8 1.4 57 3.4 WSW 26 39 14 21 1023.8 1024.2 0.2
26/01:30pm 9.0 1.9 3.8 70 2.3 W 30 44 16 24 1023.6 1024.0 0.2
26/01:00pm 9.2 1.8 1.6 59 3.2 WSW 30 41 16 22 1023.4 1023.8 0.2
26/12:30pm 9.2 2.1 1.3 58 3.3 WSW 28 41 15 22 1023.5 1023.9 0.2
26/12:00pm 10.1 3.2 2.4 59 3.3 WSW 28 43 15 23 1023.5 1023.9 0.2
26/11:30am 9.0 2.0 1.9 61 3.0 WSW 28 39 15 21 1023.4 1023.8 0.2
26/11:00am 9.1 1.6 1.1 57 3.3 SW 30 48 16 26 1022.9 1023.3 0.2
26/10:45am 9.2 1.8 2.1 61 3.0 SW 30 48 16 26 1022.7 1023.1 0.2
26/10:30am 8.8 2.0 3.3 68 2.4 WSW 28 39 15 21 1022.6 1023.0 0.2
26/10:00am 6.9 -1.1 3.6 79 1.4 WSW 35 61 19 33 1022.2 1022.6 0.2
26/09:57am 7.4 -0.2 2.9 73 1.9 WSW 32 61 17 33 1022.1 1022.5 0.0
26/09:30am 8.0 2.1 3.9 75 1.8 WSW 24 37 13 20 1021.7 1022.1 0.0
26/09:00am 7.2 1.7 4.0 80 1.4 WSW 22 35 12 19 1021.7 1022.1 5.6
26/08:30am 6.7 1.1 3.7 81 1.3 W 22 30 12 16 1021.4 1021.8 5.6
26/08:00am 6.0 0.6 2.6 79 1.4 W 20 32 11 17 1021.0 1021.4 5.6
26/07:30am 6.1 0.0 3.0 80 1.3 WSW 24 35 13 19 1020.7 1021.1 5.6
26/07:00am 6.1 1.5 3.5 83 1.1 W 17 26 9 14 1020.0 1020.4 5.6
26/06:30am 6.5 0.5 3.2 79 1.4 WSW 24 37 13 20 1019.3 1019.7 5.6
26/06:00am 5.9 0.0 3.8 86 0.9 W 24 32 13 17 1018.5 1018.8 5.6
26/05:30am 6.2 -0.4 4.1 86 0.9 WSW 28 39 15 21 1017.7 1018.1 5.6
26/05:00am 6.6 -0.4 4.1 84 1.1 W 30 43 16 23 1017.0 1017.4 5.6
26/04:30am 6.7 -0.3 3.9 82 1.2 W 30 43 16 23 1016.7 1017.1 5.6
26/04:00am 6.8 -0.8 4.0 82 1.2 WSW 33 46 18 25 1016.6 1017.0 5.6
26/03:30am 7.4 -0.5 4.5 82 1.3 WSW 35 50 19 27 1016.4 1016.8 5.6
26/03:07am 7.8 0.4 4.9 82 1.3 WSW 33 54 18 29 1016.4 1016.8 5.6
26/03:00am 7.8 0.5 5.4 85 1.1 WSW 33 48 18 26 1016.4 1016.8 5.6
26/02:30am 7.9 0.3 5.7 86 1.0 WSW 35 46 19 25 1016.0 1016.4 5.6
26/02:05am 8.0 1.0 5.8 86 1.0 WSW 32 50 17 27 1016.0 1016.4 5.6
26/02:00am 8.1 0.5 5.7 85 1.1 WSW 35 50 19 27 1015.9 1016.3 5.6
26/01:30am 8.5 0.3 6.4 87 1.0 WSW 39 56 21 30 1015.8 1016.1 5.6
26/01:13am 8.6 0.4 6.7 88 0.9 WSW 39 57 21 31 1015.7 1016.0 5.6
26/01:00am 8.6 0.6 7.3 91 0.6 WSW 39 54 21 29 1015.6 1015.9 5.6
26/12:30am 8.8 0.9 8.0 95 0.4 WSW 39 57 21 31 1015.3 1015.6 5.6
26/12:09am 8.9 1.2 8.5 97 0.2 WSW 39 57 21 31 1015.1 1015.4 5.6
26/12:00am 8.9 1.5 8.5 97 0.2 WSW 37 52 20 28 1015.3 1015.6 5.6
 
Date/Time
CST
Temp
°C
App
Temp
°C
Dew
Point
Rel
Hum
%
Delta-T
°C
Wind Press
QNH
hPa
Press
MSL
hPa
Rain
since 9 am
mm
Dir
 
Spd
km/h
Gust
km/h
Spd
kts
Gust
kts
25/11:32pm 9.4 1.0 9.0 97 0.2 W 43 72 23 39 1015.1 1015.4 5.2
25/11:30pm 9.7 2.2 9.3 97 0.2 W 39 56 21 30 1015.0 1015.3 5.2
25/11:00pm 10.6 1.8 9.6 93 0.5 WNW 46 67 25 36 1014.4 1014.7 2.0
25/10:35pm 10.8 2.3 9.2 90 0.8 WNW 44 63 24 34 1014.3 1014.6 2.0
25/10:30pm 10.9 1.6 9.1 89 0.9 WNW 48 63 26 34 1014.3 1014.6 2.0
25/10:00pm 11.0 2.5 9.2 89 0.9 WNW 44 65 24 35 1014.6 1014.9 2.0
25/09:46pm 10.8 2.9 9.4 91 0.7 WNW 41 65 22 35 1014.7 1015.0 2.0
25/09:30pm 10.7 2.7 9.1 90 0.8 WNW 41 54 22 29 1014.7 1015.0 2.0
25/09:01pm 10.6 2.4 9.6 93 0.5 WNW 43 61 23 33 1015.0 1015.3 2.0
25/09:00pm 10.6 2.2 9.6 93 0.5 WNW 44 61 24 33 1014.9 1015.2 2.0
25/08:30pm 10.7 2.3 9.5 92 0.6 WNW 44 69 24 37 1015.1 1015.4 1.8
25/08:02pm 11.3 4.3 8.5 83 1.4 WNW 35 54 19 29 1015.2 1015.5 1.8
25/08:00pm 11.4 4.0 8.4 82 1.5 WNW 37 54 20 29 1015.2 1015.5 1.8
25/07:30pm 11.2 5.5 8.4 83 1.4 WNW 28 43 15 23 1015.1 1015.4 1.8
25/07:00pm 10.6 6.6 9.0 90 0.8 WNW 20 28 11 15 1015.1 1015.4 1.8
25/06:30pm 10.6 6.7 9.4 92 0.6 WNW 20 28 11 15 1015.2 1015.5 1.8
25/06:00pm 10.5 5.5 9.5 93 0.5 WNW 26 39 14 21 1014.9 1015.2 1.6
25/05:30pm 10.8 5.3 9.2 90 0.8 WNW 28 39 15 21 1015.0 1015.3 0.4
25/05:01pm 11.5 5.5 8.5 82 1.5 WNW 30 50 16 27 1014.7 1015.0 0.0
25/05:00pm 11.4 5.4 8.6 83 1.4 WNW 30 44 16 24 1014.6 1014.9 0.0
25/04:30pm 12.4 5.7 7.5 72 2.4 WNW 32 50 17 27 1014.5 1014.8 0.0
25/04:29pm 12.4 5.7 7.5 72 2.4 WNW 32 50 17 27 1014.4 1014.7 0.0
25/04:00pm 12.4 5.9 8.0 74 2.2 WNW 32 44 17 24 1014.5 1014.8 0.0
25/03:30pm 12.8 4.9 7.8 71 2.5 WNW 39 52 21 28 1014.4 1014.7 0.0
25/03:05pm 12.7 6.0 7.4 70 2.6 WNW 32 52 17 28 1014.4 1014.7 0.0

Other Formats:

Comma delimited format used in spreadsheet applications
http://www.bom.gov.au/fwo/IDS60801/IDS60801.94681.axf

JavaScript Object Notation format (JSON) in row-major order
http://www.bom.gov.au/fwo/IDS60801/IDS60801.94681.json